sensor_id;sensor_type;location;lat;lon;timestamp;temperature;humidity
22940;DHT22;11636;52.086;5.090;2023-12-29T00:00:22;10.30;99.90
22940;DHT22;11636;52.086;5.090;2023-12-29T00:02:50;10.30;99.90
22940;DHT22;11636;52.086;5.090;2023-12-29T00:05:23;10.30;99.90
22940;DHT22;11636;52.086;5.090;2023-12-29T00:07:56;10.20;99.90
22940;DHT22;11636;52.086;5.090;2023-12-29T00:10:23;10.00;99.90
22940;DHT22;11636;52.086;5.090;2023-12-29T00:12:56;9.90;99.90
22940;DHT22;11636;52.086;5.090;2023-12-29T00:15:23;9.70;99.90
22940;DHT22;11636;52.086;5.090;2023-12-29T00:17:50;9.60;99.90
22940;DHT22;11636;52.086;5.090;2023-12-29T00:20:26;9.40;99.90
22940;DHT22;11636;52.086;5.090;2023-12-29T00:23:06;9.40;99.90
22940;DHT22;11636;52.086;5.090;2023-12-29T00:25:39;9.30;99.90
22940;DHT22;11636;52.086;5.090;2023-12-29T00:28:13;9.30;99.90
22940;DHT22;11636;52.086;5.090;2023-12-29T00:30:40;9.30;99.90
22940;DHT22;11636;52.086;5.090;2023-12-29T00:33:27;9.40;99.90
22940;DHT22;11636;52.086;5.090;2023-12-29T00:35:54;9.40;99.90
22940;DHT22;11636;52.086;5.090;2023-12-29T00:38:29;9.40;99.90
22940;DHT22;11636;52.086;5.090;2023-12-29T00:40:55;9.50;99.90
22940;DHT22;11636;52.086;5.090;2023-12-29T00:43:28;9.60;99.90
22940;DHT22;11636;52.086;5.090;2023-12-29T00:46:05;9.60;99.90
22940;DHT22;11636;52.086;5.090;2023-12-29T00:48:32;9.70;99.90
22940;DHT22;11636;52.086;5.090;2023-12-29T00:51:03;9.80;99.90
22940;DHT22;11636;52.086;5.090;2023-12-29T00:53:36;9.90;99.90
22940;DHT22;11636;52.086;5.090;2023-12-29T00:56:10;9.90;99.90
22940;DHT22;11636;52.086;5.090;2023-12-29T00:58:43;10.00;99.90
22940;DHT22;11636;52.086;5.090;2023-12-29T01:01:16;10.10;99.90
22940;DHT22;11636;52.086;5.090;2023-12-29T01:03:43;10.10;99.90
22940;DHT22;11636;52.086;5.090;2023-12-29T01:06:16;10.10;99.90
22940;DHT22;11636;52.086;5.090;2023-12-29T01:08:43;10.10;99.90
22940;DHT22;11636;52.086;5.090;2023-12-29T01:11:10;10.10;99.90
22940;DHT22;11636;52.086;5.090;2023-12-29T01:13:43;10.10;99.90
22940;DHT22;11636;52.086;5.090;2023-12-29T01:16:10;10.10;99.90
22940;DHT22;11636;52.086;5.090;2023-12-29T01:18:43;10.10;99.90
22940;DHT22;11636;52.086;5.090;2023-12-29T01:21:11;10.10;99.90
22940;DHT22;11636;52.086;5.090;2023-12-29T01:23:43;10.10;99.90
22940;DHT22;11636;52.086;5.090;2023-12-29T01:26:11;10.10;99.90
22940;DHT22;11636;52.086;5.090;2023-12-29T01:28:44;10.10;99.90
22940;DHT22;11636;52.086;5.090;2023-12-29T01:31:10;10.10;99.90
22940;DHT22;11636;52.086;5.090;2023-12-29T01:33:39;10.10;99.90
22940;DHT22;11636;52.086;5.090;2023-12-29T01:36:19;10.10;99.90
22940;DHT22;11636;52.086;5.090;2023-12-29T01:38:51;10.00;99.90
22940;DHT22;11636;52.086;5.090;2023-12-29T01:41:24;10.00;99.90
22940;DHT22;11636;52.086;5.090;2023-12-29T01:46:34;10.00;99.90
22940;DHT22;11636;52.086;5.090;2023-12-29T01:49:02;10.00;99.90
22940;DHT22;11636;52.086;5.090;2023-12-29T01:51:36;10.00;99.90
22940;DHT22;11636;52.086;5.090;2023-12-29T01:54:03;10.00;99.90
22940;DHT22;11636;52.086;5.090;2023-12-29T01:56:36;10.10;99.90
22940;DHT22;11636;52.086;5.090;2023-12-29T01:59:03;10.10;99.90
22940;DHT22;11636;52.086;5.090;2023-12-29T02:01:40;10.10;99.90
22940;DHT22;11636;52.086;5.090;2023-12-29T02:04:14;10.10;99.90
22940;DHT22;11636;52.086;5.090;2023-12-29T02:06:41;10.00;99.90
22940;DHT22;11636;52.086;5.090;2023-12-29T02:09:17;10.00;99.90
22940;DHT22;11636;52.086;5.090;2023-12-29T02:11:44;10.00;99.90
22940;DHT22;11636;52.086;5.090;2023-12-29T02:14:18;10.00;99.90
22940;DHT22;11636;52.086;5.090;2023-12-29T02:22:08;10.00;99.90
22940;DHT22;11636;52.086;5.090;2023-12-29T02:24:46;10.00;99.90
22940;DHT22;11636;52.086;5.090;2023-12-29T02:27:40;9.90;99.90
22940;DHT22;11636;52.086;5.090;2023-12-29T02:30:38;9.90;99.90
22940;DHT22;11636;52.086;5.090;2023-12-29T02:33:10;9.80;99.90
22940;DHT22;11636;52.086;5.090;2023-12-29T02:35:46;9.80;99.90
22940;DHT22;11636;52.086;5.090;2023-12-29T02:38:15;9.70;99.90
22940;DHT22;11636;52.086;5.090;2023-12-29T02:40:49;9.80;99.90
22940;DHT22;11636;52.086;5.090;2023-12-29T02:43:16;9.70;99.90
22940;DHT22;11636;52.086;5.090;2023-12-29T02:45:42;9.70;99.90
22940;DHT22;11636;52.086;5.090;2023-12-29T02:48:16;9.70;99.90
22940;DHT22;11636;52.086;5.090;2023-12-29T02:50:49;9.60;99.90
22940;DHT22;11636;52.086;5.090;2023-12-29T02:53:29;9.50;99.90
22940;DHT22;11636;52.086;5.090;2023-12-29T02:55:55;9.50;99.90
22940;DHT22;11636;52.086;5.090;2023-12-29T02:58:29;9.50;99.90
22940;DHT22;11636;52.086;5.090;2023-12-29T03:00:56;9.50;99.90
22940;DHT22;11636;52.086;5.090;2023-12-29T03:03:29;9.50;99.90
22940;DHT22;11636;52.086;5.090;2023-12-29T03:05:56;9.50;99.90
22940;DHT22;11636;52.086;5.090;2023-12-29T03:08:23;9.50;99.90
22940;DHT22;11636;52.086;5.090;2023-12-29T03:10:56;9.50;99.90
22940;DHT22;11636;52.086;5.090;2023-12-29T03:13:22;9.50;99.90
22940;DHT22;11636;52.086;5.090;2023-12-29T03:15:56;9.50;99.90
22940;DHT22;11636;52.086;5.090;2023-12-29T03:18:29;9.50;99.90
22940;DHT22;11636;52.086;5.090;2023-12-29T03:21:02;9.50;99.90
22940;DHT22;11636;52.086;5.090;2023-12-29T03:23:29;9.40;99.90
22940;DHT22;11636;52.086;5.090;2023-12-29T03:26:03;9.50;99.90
22940;DHT22;11636;52.086;5.090;2023-12-29T03:28:29;9.40;99.90
22940;DHT22;11636;52.086;5.090;2023-12-29T03:30:56;9.30;99.90
22940;DHT22;11636;52.086;5.090;2023-12-29T03:33:30;9.30;99.90
22940;DHT22;11636;52.086;5.090;2023-12-29T03:36:03;9.20;99.90
22940;DHT22;11636;52.086;5.090;2023-12-29T03:38:30;9.20;99.90
22940;DHT22;11636;52.086;5.090;2023-12-29T03:41:10;9.20;99.90
22940;DHT22;11636;52.086;5.090;2023-12-29T03:43:37;9.10;99.90
22940;DHT22;11636;52.086;5.090;2023-12-29T03:46:18;9.20;99.90
22940;DHT22;11636;52.086;5.090;2023-12-29T03:48:51;9.10;99.90
22940;DHT22;11636;52.086;5.090;2023-12-29T03:51:18;9.20;99.90
22940;DHT22;11636;52.086;5.090;2023-12-29T03:53:52;9.20;99.90
22940;DHT22;11636;52.086;5.090;2023-12-29T03:56:18;9.30;99.90
22940;DHT22;11636;52.086;5.090;2023-12-29T03:58:52;9.40;99.90
22940;DHT22;11636;52.086;5.090;2023-12-29T04:01:19;9.40;99.90
22940;DHT22;11636;52.086;5.090;2023-12-29T04:03:46;9.50;99.90
22940;DHT22;11636;52.086;5.090;2023-12-29T04:06:20;9.50;99.90
22940;DHT22;11636;52.086;5.090;2023-12-29T04:08:47;9.50;99.90
22940;DHT22;11636;52.086;5.090;2023-12-29T04:11:20;9.50;99.90
22940;DHT22;11636;52.086;5.090;2023-12-29T04:13:46;9.60;99.90
22940;DHT22;11636;52.086;5.090;2023-12-29T04:16:20;9.50;99.90
22940;DHT22;11636;52.086;5.090;2023-12-29T04:18:46;9.60;99.90
22940;DHT22;11636;52.086;5.090;2023-12-29T04:21:20;9.60;99.90
22940;DHT22;11636;52.086;5.090;2023-12-29T04:23:47;9.60;99.90
22940;DHT22;11636;52.086;5.090;2023-12-29T04:26:20;9.70;99.90
22940;DHT22;11636;52.086;5.090;2023-12-29T04:28:47;9.70;99.90
22940;DHT22;11636;52.086;5.090;2023-12-29T04:31:13;9.70;99.90
22940;DHT22;11636;52.086;5.090;2023-12-29T04:33:47;9.70;99.90
22940;DHT22;11636;52.086;5.090;2023-12-29T04:36:14;9.70;99.90
22940;DHT22;11636;52.086;5.090;2023-12-29T04:38:47;9.70;99.90
22940;DHT22;11636;52.086;5.090;2023-12-29T04:41:14;9.80;99.90
22940;DHT22;11636;52.086;5.090;2023-12-29T04:43:41;9.80;99.90
22940;DHT22;11636;52.086;5.090;2023-12-29T04:46:14;9.80;99.90
22940;DHT22;11636;52.086;5.090;2023-12-29T04:48:41;9.80;99.90
22940;DHT22;11636;52.086;5.090;2023-12-29T04:51:14;9.80;99.90
22940;DHT22;11636;52.086;5.090;2023-12-29T04:53:41;9.80;99.90
22940;DHT22;11636;52.086;5.090;2023-12-29T04:56:07;9.80;99.90
22940;DHT22;11636;52.086;5.090;2023-12-29T04:58:41;9.80;99.90
22940;DHT22;11636;52.086;5.090;2023-12-29T05:01:14;9.80;99.90
22940;DHT22;11636;52.086;5.090;2023-12-29T05:03:47;9.80;99.90
22940;DHT22;11636;52.086;5.090;2023-12-29T05:06:20;9.70;99.90
22940;DHT22;11636;52.086;5.090;2023-12-29T05:08:47;9.70;99.90
22940;DHT22;11636;52.086;5.090;2023-12-29T05:11:13;9.70;99.90
22940;DHT22;11636;52.086;5.090;2023-12-29T05:13:47;9.70;99.90
22940;DHT22;11636;52.086;5.090;2023-12-29T05:16:14;9.70;99.90
22940;DHT22;11636;52.086;5.090;2023-12-29T05:18:47;9.70;99.90
22940;DHT22;11636;52.086;5.090;2023-12-29T05:21:16;9.70;99.90
22940;DHT22;11636;52.086;5.090;2023-12-29T05:23:49;9.70;99.90
22940;DHT22;11636;52.086;5.090;2023-12-29T05:26:16;9.80;99.90
22940;DHT22;11636;52.086;5.090;2023-12-29T05:28:49;9.80;99.90
22940;DHT22;11636;52.086;5.090;2023-12-29T05:31:16;9.70;99.90
22940;DHT22;11636;52.086;5.090;2023-12-29T05:33:44;9.70;99.90
22940;DHT22;11636;52.086;5.090;2023-12-29T05:36:17;9.70;99.90
22940;DHT22;11636;52.086;5.090;2023-12-29T05:38:50;9.70;99.90
22940;DHT22;11636;52.086;5.090;2023-12-29T05:41:17;9.70;99.90
22940;DHT22;11636;52.086;5.090;2023-12-29T05:43:45;9.70;99.90
22940;DHT22;11636;52.086;5.090;2023-12-29T05:46:18;9.60;99.90
22940;DHT22;11636;52.086;5.090;2023-12-29T05:48:46;9.70;99.90
22940;DHT22;11636;52.086;5.090;2023-12-29T05:51:20;9.60;99.90
22940;DHT22;11636;52.086;5.090;2023-12-29T05:53:47;9.70;99.90
22940;DHT22;11636;52.086;5.090;2023-12-29T05:56:20;9.60;99.90
22940;DHT22;11636;52.086;5.090;2023-12-29T05:58:48;9.70;99.90
22940;DHT22;11636;52.086;5.090;2023-12-29T06:01:15;9.70;99.90
22940;DHT22;11636;52.086;5.090;2023-12-29T06:03:49;9.70;99.90
22940;DHT22;11636;52.086;5.090;2023-12-29T06:06:16;9.70;99.90
22940;DHT22;11636;52.086;5.090;2023-12-29T06:08:49;9.70;99.90
22940;DHT22;11636;52.086;5.090;2023-12-29T06:11:16;9.70;99.90
22940;DHT22;11636;52.086;5.090;2023-12-29T06:13:50;9.80;99.90
22940;DHT22;11636;52.086;5.090;2023-12-29T06:16:21;9.80;99.90
22940;DHT22;11636;52.086;5.090;2023-12-29T06:18:54;9.80;99.90
22940;DHT22;11636;52.086;5.090;2023-12-29T06:21:21;9.80;99.90
22940;DHT22;11636;52.086;5.090;2023-12-29T06:23:48;9.80;99.90
22940;DHT22;11636;52.086;5.090;2023-12-29T06:26:21;9.80;99.90
22940;DHT22;11636;52.086;5.090;2023-12-29T06:28:49;9.80;99.90
22940;DHT22;11636;52.086;5.090;2023-12-29T06:31:23;9.80;99.90
22940;DHT22;11636;52.086;5.090;2023-12-29T06:33:57;9.80;99.90
22940;DHT22;11636;52.086;5.090;2023-12-29T06:36:33;9.80;99.90
22940;DHT22;11636;52.086;5.090;2023-12-29T06:39:07;9.80;99.90
22940;DHT22;11636;52.086;5.090;2023-12-29T06:41:34;9.80;99.90
22940;DHT22;11636;52.086;5.090;2023-12-29T06:44:01;9.80;99.90
22940;DHT22;11636;52.086;5.090;2023-12-29T06:46:36;9.80;99.90
22940;DHT22;11636;52.086;5.090;2023-12-29T06:49:03;9.80;99.90
22940;DHT22;11636;52.086;5.090;2023-12-29T06:51:30;9.80;99.90
22940;DHT22;11636;52.086;5.090;2023-12-29T06:54:03;9.80;99.90
22940;DHT22;11636;52.086;5.090;2023-12-29T06:56:30;9.80;99.90
22940;DHT22;11636;52.086;5.090;2023-12-29T06:59:03;9.80;99.90
22940;DHT22;11636;52.086;5.090;2023-12-29T07:01:30;9.80;99.90
22940;DHT22;11636;52.086;5.090;2023-12-29T07:04:03;9.90;99.90
22940;DHT22;11636;52.086;5.090;2023-12-29T07:06:37;9.90;99.90
22940;DHT22;11636;52.086;5.090;2023-12-29T07:09:10;9.90;99.90
22940;DHT22;11636;52.086;5.090;2023-12-29T07:11:37;9.90;99.90
22940;DHT22;11636;52.086;5.090;2023-12-29T07:14:04;9.90;99.90
22940;DHT22;11636;52.086;5.090;2023-12-29T07:16:37;9.80;99.90
22940;DHT22;11636;52.086;5.090;2023-12-29T07:19:10;9.80;99.90
22940;DHT22;11636;52.086;5.090;2023-12-29T07:21:38;9.90;99.90
22940;DHT22;11636;52.086;5.090;2023-12-29T07:24:11;9.90;99.90
22940;DHT22;11636;52.086;5.090;2023-12-29T07:26:44;9.80;99.90
22940;DHT22;11636;52.086;5.090;2023-12-29T07:29:17;9.90;99.90
22940;DHT22;11636;52.086;5.090;2023-12-29T07:31:44;9.90;99.90
22940;DHT22;11636;52.086;5.090;2023-12-29T07:34:17;9.90;99.90
22940;DHT22;11636;52.086;5.090;2023-12-29T07:36:51;9.80;99.90
22940;DHT22;11636;52.086;5.090;2023-12-29T07:39:18;9.80;99.90
22940;DHT22;11636;52.086;5.090;2023-12-29T07:41:51;9.80;99.90
22940;DHT22;11636;52.086;5.090;2023-12-29T07:44:18;9.70;99.90
22940;DHT22;11636;52.086;5.090;2023-12-29T07:46:51;9.70;99.90
22940;DHT22;11636;52.086;5.090;2023-12-29T07:49:18;9.70;99.90
22940;DHT22;11636;52.086;5.090;2023-12-29T07:51:58;9.70;99.90
22940;DHT22;11636;52.086;5.090;2023-12-29T07:54:26;9.70;99.90
22940;DHT22;11636;52.086;5.090;2023-12-29T07:56:59;9.80;99.90
22940;DHT22;11636;52.086;5.090;2023-12-29T07:59:32;9.80;99.90
22940;DHT22;11636;52.086;5.090;2023-12-29T08:01:59;9.80;99.90
22940;DHT22;11636;52.086;5.090;2023-12-29T08:04:33;9.80;99.90
22940;DHT22;11636;52.086;5.090;2023-12-29T08:06:59;9.80;99.90
22940;DHT22;11636;52.086;5.090;2023-12-29T08:09:33;9.90;99.90
22940;DHT22;11636;52.086;5.090;2023-12-29T08:12:00;9.90;99.90
22940;DHT22;11636;52.086;5.090;2023-12-29T08:14:33;9.90;99.90
22940;DHT22;11636;52.086;5.090;2023-12-29T08:17:00;9.90;99.90
22940;DHT22;11636;52.086;5.090;2023-12-29T08:19:35;9.90;99.90
22940;DHT22;11636;52.086;5.090;2023-12-29T08:22:02;9.90;99.90
22940;DHT22;11636;52.086;5.090;2023-12-29T08:24:35;9.80;99.90
22940;DHT22;11636;52.086;5.090;2023-12-29T08:27:02;9.80;99.90
22940;DHT22;11636;52.086;5.090;2023-12-29T08:29:36;9.80;99.90
22940;DHT22;11636;52.086;5.090;2023-12-29T08:32:03;9.90;99.90
22940;DHT22;11636;52.086;5.090;2023-12-29T08:34:30;9.90;99.90
22940;DHT22;11636;52.086;5.090;2023-12-29T08:37:04;9.90;99.90
22940;DHT22;11636;52.086;5.090;2023-12-29T08:39:32;9.90;99.90
22940;DHT22;11636;52.086;5.090;2023-12-29T08:42:05;9.90;99.90
22940;DHT22;11636;52.086;5.090;2023-12-29T08:44:32;9.90;99.90
22940;DHT22;11636;52.086;5.090;2023-12-29T08:46:59;9.80;99.90
22940;DHT22;11636;52.086;5.090;2023-12-29T08:49:32;9.70;99.90
22940;DHT22;11636;52.086;5.090;2023-12-29T08:51:59;9.70;99.90
22940;DHT22;11636;52.086;5.090;2023-12-29T08:54:32;9.60;99.90
22940;DHT22;11636;52.086;5.090;2023-12-29T08:56:59;9.60;99.90
22940;DHT22;11636;52.086;5.090;2023-12-29T08:59:33;9.60;99.90
22940;DHT22;11636;52.086;5.090;2023-12-29T09:02:06;9.60;99.90
22940;DHT22;11636;52.086;5.090;2023-12-29T09:04:33;9.60;99.90
22940;DHT22;11636;52.086;5.090;2023-12-29T09:07:07;9.60;99.90
22940;DHT22;11636;52.086;5.090;2023-12-29T09:09:40;9.60;99.90
22940;DHT22;11636;52.086;5.090;2023-12-29T09:12:13;9.70;99.90
22940;DHT22;11636;52.086;5.090;2023-12-29T09:14:40;9.80;99.90
22940;DHT22;11636;52.086;5.090;2023-12-29T09:17:13;9.80;99.90
22940;DHT22;11636;52.086;5.090;2023-12-29T09:19:46;9.80;99.90
22940;DHT22;11636;52.086;5.090;2023-12-29T09:22:32;9.90;99.90
22940;DHT22;11636;52.086;5.090;2023-12-29T09:24:59;9.90;99.90
22940;DHT22;11636;52.086;5.090;2023-12-29T09:27:32;10.00;99.90
22940;DHT22;11636;52.086;5.090;2023-12-29T09:29:59;10.10;99.90
22940;DHT22;11636;52.086;5.090;2023-12-29T09:32:32;10.10;99.90
22940;DHT22;11636;52.086;5.090;2023-12-29T09:35:05;10.10;99.90
22940;DHT22;11636;52.086;5.090;2023-12-29T09:37:32;10.20;99.90
22940;DHT22;11636;52.086;5.090;2023-12-29T09:40:06;10.30;99.90
22940;DHT22;11636;52.086;5.090;2023-12-29T09:42:33;10.30;99.90
22940;DHT22;11636;52.086;5.090;2023-12-29T09:45:02;10.30;99.90
22940;DHT22;11636;52.086;5.090;2023-12-29T09:47:42;10.30;99.90
22940;DHT22;11636;52.086;5.090;2023-12-29T09:50:12;10.30;99.90
22940;DHT22;11636;52.086;5.090;2023-12-29T09:52:48;10.40;99.90
22940;DHT22;11636;52.086;5.090;2023-12-29T09:55:17;10.40;99.90
22940;DHT22;11636;52.086;5.090;2023-12-29T09:57:50;10.40;99.90
22940;DHT22;11636;52.086;5.090;2023-12-29T10:00:18;10.50;99.90
22940;DHT22;11636;52.086;5.090;2023-12-29T10:02:51;10.50;99.90
22940;DHT22;11636;52.086;5.090;2023-12-29T10:05:25;10.50;99.90
22940;DHT22;11636;52.086;5.090;2023-12-29T10:07:53;10.60;99.90
22940;DHT22;11636;52.086;5.090;2023-12-29T10:10:28;10.70;99.90
22940;DHT22;11636;52.086;5.090;2023-12-29T10:12:56;10.80;99.90
22940;DHT22;11636;52.086;5.090;2023-12-29T10:15:40;10.80;99.90
22940;DHT22;11636;52.086;5.090;2023-12-29T10:18:32;10.90;99.90
22940;DHT22;11636;52.086;5.090;2023-12-29T10:21:27;10.90;99.90
22940;DHT22;11636;52.086;5.090;2023-12-29T10:24:16;10.90;99.90
22940;DHT22;11636;52.086;5.090;2023-12-29T10:26:50;10.90;99.90
22940;DHT22;11636;52.086;5.090;2023-12-29T10:29:19;10.80;99.90
22940;DHT22;11636;52.086;5.090;2023-12-29T10:31:53;10.80;99.90
22940;DHT22;11636;52.086;5.090;2023-12-29T10:34:22;10.80;99.90
22940;DHT22;11636;52.086;5.090;2023-12-29T10:37:02;10.80;99.90
22940;DHT22;11636;52.086;5.090;2023-12-29T10:39:33;10.80;99.90
22940;DHT22;11636;52.086;5.090;2023-12-29T10:42:07;10.80;99.90
22940;DHT22;11636;52.086;5.090;2023-12-29T10:44:36;10.90;99.90
22940;DHT22;11636;52.086;5.090;2023-12-29T10:47:10;10.90;99.90
22940;DHT22;11636;52.086;5.090;2023-12-29T10:49:59;10.90;99.90
22940;DHT22;11636;52.086;5.090;2023-12-29T10:52:39;10.90;99.90
22940;DHT22;11636;52.086;5.090;2023-12-29T10:55:14;10.90;99.90
22940;DHT22;11636;52.086;5.090;2023-12-29T10:57:41;10.90;99.90
22940;DHT22;11636;52.086;5.090;2023-12-29T11:00:09;10.90;99.90
22940;DHT22;11636;52.086;5.090;2023-12-29T11:02:54;10.90;99.90
22940;DHT22;11636;52.086;5.090;2023-12-29T11:05:28;10.90;99.90
22940;DHT22;11636;52.086;5.090;2023-12-29T11:08:15;10.90;99.90
22940;DHT22;11636;52.086;5.090;2023-12-29T11:10:50;11.00;99.90
22940;DHT22;11636;52.086;5.090;2023-12-29T11:13:17;11.00;99.90
22940;DHT22;11636;52.086;5.090;2023-12-29T11:15:52;11.00;99.90
22940;DHT22;11636;52.086;5.090;2023-12-29T11:18:27;11.10;99.90
22940;DHT22;11636;52.086;5.090;2023-12-29T11:20:57;11.10;99.90
22940;DHT22;11636;52.086;5.090;2023-12-29T11:23:24;11.10;99.90
22940;DHT22;11636;52.086;5.090;2023-12-29T11:25:57;11.20;99.90
22940;DHT22;11636;52.086;5.090;2023-12-29T11:28:25;11.30;99.90
22940;DHT22;11636;52.086;5.090;2023-12-29T11:30:52;11.30;99.90
22940;DHT22;11636;52.086;5.090;2023-12-29T11:33:30;11.30;99.90
22940;DHT22;11636;52.086;5.090;2023-12-29T11:36:04;11.30;99.90
22940;DHT22;11636;52.086;5.090;2023-12-29T11:41:50;11.40;99.90
22940;DHT22;11636;52.086;5.090;2023-12-29T11:44:26;11.40;99.90
22940;DHT22;11636;52.086;5.090;2023-12-29T11:47:00;11.40;99.90
22940;DHT22;11636;52.086;5.090;2023-12-29T11:49:59;11.40;99.90
22940;DHT22;11636;52.086;5.090;2023-12-29T11:52:35;11.40;99.90
22940;DHT22;11636;52.086;5.090;2023-12-29T11:55:12;11.30;99.90
22940;DHT22;11636;52.086;5.090;2023-12-29T11:57:39;11.40;99.90
22940;DHT22;11636;52.086;5.090;2023-12-29T12:00:08;11.40;99.90
22940;DHT22;11636;52.086;5.090;2023-12-29T12:02:41;11.40;99.90
22940;DHT22;11636;52.086;5.090;2023-12-29T12:05:10;11.50;99.90
22940;DHT22;11636;52.086;5.090;2023-12-29T12:12:50;11.40;99.90
22940;DHT22;11636;52.086;5.090;2023-12-29T12:17:56;11.40;99.90
22940;DHT22;11636;52.086;5.090;2023-12-29T12:20:30;11.40;99.90
22940;DHT22;11636;52.086;5.090;2023-12-29T12:23:02;11.50;99.90
22940;DHT22;11636;52.086;5.090;2023-12-29T12:25:37;11.50;99.90
22940;DHT22;11636;52.086;5.090;2023-12-29T12:28:07;11.50;99.90
22940;DHT22;11636;52.086;5.090;2023-12-29T12:30:34;11.50;99.90
22940;DHT22;11636;52.086;5.090;2023-12-29T12:33:08;11.60;99.90
22940;DHT22;11636;52.086;5.090;2023-12-29T12:35:38;11.50;99.90
22940;DHT22;11636;52.086;5.090;2023-12-29T12:38:16;11.60;99.90
22940;DHT22;11636;52.086;5.090;2023-12-29T12:40:50;11.60;99.90
22940;DHT22;11636;52.086;5.090;2023-12-29T12:43:25;11.60;99.90
22940;DHT22;11636;52.086;5.090;2023-12-29T12:46:00;11.60;99.90
22940;DHT22;11636;52.086;5.090;2023-12-29T12:48:46;11.60;99.90
22940;DHT22;11636;52.086;5.090;2023-12-29T12:51:14;11.60;99.90
22940;DHT22;11636;52.086;5.090;2023-12-29T12:53:48;11.60;99.90
22940;DHT22;11636;52.086;5.090;2023-12-29T12:56:16;11.70;99.90
22940;DHT22;11636;52.086;5.090;2023-12-29T12:58:52;11.70;99.90
22940;DHT22;11636;52.086;5.090;2023-12-29T13:01:18;11.60;99.90
22940;DHT22;11636;52.086;5.090;2023-12-29T13:03:52;11.60;99.90
22940;DHT22;11636;52.086;5.090;2023-12-29T13:06:20;11.60;99.90
22940;DHT22;11636;52.086;5.090;2023-12-29T13:09:04;11.60;99.90
22940;DHT22;11636;52.086;5.090;2023-12-29T13:11:42;11.60;99.90
22940;DHT22;11636;52.086;5.090;2023-12-29T13:14:09;11.50;99.90
22940;DHT22;11636;52.086;5.090;2023-12-29T13:16:56;11.40;99.90
22940;DHT22;11636;52.086;5.090;2023-12-29T13:19:23;11.40;99.90
22940;DHT22;11636;52.086;5.090;2023-12-29T13:21:58;11.30;99.90
22940;DHT22;11636;52.086;5.090;2023-12-29T13:24:25;11.30;99.90
22940;DHT22;11636;52.086;5.090;2023-12-29T13:27:05;11.30;99.90
22940;DHT22;11636;52.086;5.090;2023-12-29T13:29:35;11.30;99.90
22940;DHT22;11636;52.086;5.090;2023-12-29T13:32:21;11.30;99.90
22940;DHT22;11636;52.086;5.090;2023-12-29T13:37:50;11.30;99.90
22940;DHT22;11636;52.086;5.090;2023-12-29T13:43:01;11.30;99.90
22940;DHT22;11636;52.086;5.090;2023-12-29T13:45:31;11.30;99.90
22940;DHT22;11636;52.086;5.090;2023-12-29T13:48:09;11.30;99.90
22940;DHT22;11636;52.086;5.090;2023-12-29T13:50:36;11.20;99.90
22940;DHT22;11636;52.086;5.090;2023-12-29T13:53:18;11.20;99.90
22940;DHT22;11636;52.086;5.090;2023-12-29T13:55:46;11.10;99.90
22940;DHT22;11636;52.086;5.090;2023-12-29T13:58:19;11.10;99.90
22940;DHT22;11636;52.086;5.090;2023-12-29T14:00:56;11.10;99.90
22940;DHT22;11636;52.086;5.090;2023-12-29T14:03:34;11.10;99.90
22940;DHT22;11636;52.086;5.090;2023-12-29T14:06:18;11.20;99.90
22940;DHT22;11636;52.086;5.090;2023-12-29T14:08:46;11.20;99.90
22940;DHT22;11636;52.086;5.090;2023-12-29T14:11:20;11.20;99.90
22940;DHT22;11636;52.086;5.090;2023-12-29T14:13:47;11.20;99.90
22940;DHT22;11636;52.086;5.090;2023-12-29T14:16:23;11.20;99.90
22940;DHT22;11636;52.086;5.090;2023-12-29T14:18:56;11.20;99.90
22940;DHT22;11636;52.086;5.090;2023-12-29T14:21:31;11.20;99.90
22940;DHT22;11636;52.086;5.090;2023-12-29T14:27:04;11.10;99.90
22940;DHT22;11636;52.086;5.090;2023-12-29T14:29:40;11.10;99.90
22940;DHT22;11636;52.086;5.090;2023-12-29T14:32:14;11.10;99.90
22940;DHT22;11636;52.086;5.090;2023-12-29T14:34:41;11.00;99.90
22940;DHT22;11636;52.086;5.090;2023-12-29T14:37:14;10.80;99.90
22940;DHT22;11636;52.086;5.090;2023-12-29T14:39:48;10.50;99.90
22940;DHT22;11636;52.086;5.090;2023-12-29T14:42:16;10.40;99.90
22940;DHT22;11636;52.086;5.090;2023-12-29T14:44:49;10.30;99.90
22940;DHT22;11636;52.086;5.090;2023-12-29T14:47:16;10.30;99.90
22940;DHT22;11636;52.086;5.090;2023-12-29T14:49:50;10.20;99.90
22940;DHT22;11636;52.086;5.090;2023-12-29T14:52:17;10.20;99.90
22940;DHT22;11636;52.086;5.090;2023-12-29T14:54:51;10.20;99.90
22940;DHT22;11636;52.086;5.090;2023-12-29T14:57:18;10.20;99.90
22940;DHT22;11636;52.086;5.090;2023-12-29T14:59:52;10.20;99.90
22940;DHT22;11636;52.086;5.090;2023-12-29T15:02:19;10.20;99.90
22940;DHT22;11636;52.086;5.090;2023-12-29T15:04:52;10.20;99.90
22940;DHT22;11636;52.086;5.090;2023-12-29T15:07:19;10.10;99.90
22940;DHT22;11636;52.086;5.090;2023-12-29T15:09:45;9.90;99.90
22940;DHT22;11636;52.086;5.090;2023-12-29T15:12:19;9.80;99.90
22940;DHT22;11636;52.086;5.090;2023-12-29T15:14:46;9.60;99.90
22940;DHT22;11636;52.086;5.090;2023-12-29T15:17:19;9.50;99.90
22940;DHT22;11636;52.086;5.090;2023-12-29T15:19:46;9.50;99.90
22940;DHT22;11636;52.086;5.090;2023-12-29T15:22:19;9.30;99.90
22940;DHT22;11636;52.086;5.090;2023-12-29T15:24:46;9.20;99.90
22940;DHT22;11636;52.086;5.090;2023-12-29T15:27:19;9.20;99.90
22940;DHT22;11636;52.086;5.090;2023-12-29T15:29:46;9.10;99.90
22940;DHT22;11636;52.086;5.090;2023-12-29T15:32:13;9.10;99.90
22940;DHT22;11636;52.086;5.090;2023-12-29T15:34:46;9.10;99.90
22940;DHT22;11636;52.086;5.090;2023-12-29T15:37:13;9.10;99.90
22940;DHT22;11636;52.086;5.090;2023-12-29T15:39:46;9.20;99.90
22940;DHT22;11636;52.086;5.090;2023-12-29T15:42:13;9.20;99.90
22940;DHT22;11636;52.086;5.090;2023-12-29T15:44:46;9.30;99.90
22940;DHT22;11636;52.086;5.090;2023-12-29T15:47:13;9.30;99.90
22940;DHT22;11636;52.086;5.090;2023-12-29T15:49:46;9.40;99.90
22940;DHT22;11636;52.086;5.090;2023-12-29T15:52:13;9.40;99.90
22940;DHT22;11636;52.086;5.090;2023-12-29T15:54:40;9.50;99.90
22940;DHT22;11636;52.086;5.090;2023-12-29T15:57:13;9.50;99.90
22940;DHT22;11636;52.086;5.090;2023-12-29T15:59:40;9.50;99.90
22940;DHT22;11636;52.086;5.090;2023-12-29T16:02:13;9.60;99.90
22940;DHT22;11636;52.086;5.090;2023-12-29T16:04:40;9.60;99.90
22940;DHT22;11636;52.086;5.090;2023-12-29T16:07:07;9.60;99.90
22940;DHT22;11636;52.086;5.090;2023-12-29T16:09:42;9.60;99.90
22940;DHT22;11636;52.086;5.090;2023-12-29T16:12:09;9.60;99.90
22940;DHT22;11636;52.086;5.090;2023-12-29T16:14:49;9.70;99.90
22940;DHT22;11636;52.086;5.090;2023-12-29T16:17:16;9.80;99.90
22940;DHT22;11636;52.086;5.090;2023-12-29T16:19:49;9.70;99.90
22940;DHT22;11636;52.086;5.090;2023-12-29T16:22:16;9.70;99.90
22940;DHT22;11636;52.086;5.090;2023-12-29T16:24:49;9.70;99.90
22940;DHT22;11636;52.086;5.090;2023-12-29T16:27:17;9.70;99.90
22940;DHT22;11636;52.086;5.090;2023-12-29T16:29:51;9.60;99.90
22940;DHT22;11636;52.086;5.090;2023-12-29T16:32:22;9.70;99.90
22940;DHT22;11636;52.086;5.090;2023-12-29T16:34:56;9.70;99.90